Time;durP1;ratioP1;P1;durP2;ratioP2;P2;SDS_P1;SDS_P2;PMS_P1;PMS_P2;Temp;Humidity;BMP_temperature;BMP_pressure;BME280_temperature;BME280_humidity;BME280_pressure;Samples;Min_cycle;Max_cycle;Signal;HPM_P1;HPM_P2
2024/01/22 00:01:40;;;;;;;11.63;6.45;;;7.90;99.90;;;;;;5082811;28;20202;-40
2024/01/22 00:04:07;;;;;;;12.88;6.50;;;8.00;99.90;;;;;;5083119;28;20190;-43
2024/01/22 00:06:37;;;;;;;13.88;6.35;;;8.00;99.90;;;;;;5083460;28;20288;-41
2024/01/22 00:09:02;;;;;;;13.05;6.13;;;8.00;99.90;;;;;;5082592;28;20235;-46
2024/01/22 00:11:29;;;;;;;9.63;5.63;;;8.00;99.90;;;;;;5082256;28;20193;-40
2024/01/22 00:13:56;;;;;;;12.73;5.78;;;8.00;99.90;;;;;;5082666;28;20197;-43
2024/01/22 00:16:23;;;;;;;13.93;5.97;;;8.00;99.90;;;;;;5083056;28;20319;-42
2024/01/22 00:18:49;;;;;;;12.05;6.35;;;8.00;99.90;;;;;;5082941;28;20201;-42
2024/01/22 00:21:16;;;;;;;12.60;5.93;;;8.00;99.90;;;;;;5081889;28;20186;-41
2024/01/22 00:23:42;;;;;;;8.40;5.50;;;8.00;99.90;;;;;;5082771;28;21741;-43
2024/01/22 00:26:12;;;;;;;12.30;6.28;;;8.00;99.90;;;;;;5081657;28;20661;-43
2024/01/22 00:28:41;;;;;;;12.15;6.22;;;8.00;99.90;;;;;;5083108;28;20213;-46
2024/01/22 00:31:08;;;;;;;10.88;6.20;;;8.00;99.90;;;;;;5082272;28;20209;-43
2024/01/22 00:33:34;;;;;;;11.75;5.80;;;8.00;99.90;;;;;;5080686;28;20343;-43
2024/01/22 00:36:00;;;;;;;10.32;5.97;;;8.00;99.90;;;;;;5082438;28;20286;-42
2024/01/22 00:38:26;;;;;;;12.50;5.78;;;8.10;99.90;;;;;;5080889;28;20207;-41
2024/01/22 00:40:52;;;;;;;8.93;5.53;;;8.10;99.90;;;;;;5081950;28;20189;-42
2024/01/22 00:43:18;;;;;;;14.18;5.93;;;8.10;99.90;;;;;;5082640;28;20186;-43
2024/01/22 00:45:44;;;;;;;13.52;6.40;;;8.10;99.90;;;;;;5081306;28;20205;-39
2024/01/22 00:48:10;;;;;;;10.60;6.07;;;8.10;99.90;;;;;;5082724;28;20676;-43
2024/01/22 00:50:36;;;;;;;10.32;5.70;;;8.20;99.90;;;;;;5063240;28;20266;-39
2024/01/22 00:53:02;;;;;;;13.68;6.13;;;8.20;99.90;;;;;;5080616;28;20709;-40
2024/01/22 00:55:28;;;;;;;9.27;5.90;;;8.20;99.90;;;;;;5082147;28;20190;-43
2024/01/22 00:57:54;;;;;;;13.77;5.97;;;8.20;99.90;;;;;;5082200;28;20238;-42
2024/01/22 01:00:20;;;;;;;11.45;5.72;;;8.30;99.90;;;;;;5081320;28;20335;-41
2024/01/22 01:02:49;;;;;;;13.55;6.55;;;8.30;99.90;;;;;;5082008;28;20674;-39
2024/01/22 01:05:16;;;;;;;11.55;5.80;;;8.30;99.90;;;;;;5080295;28;20591;-39
2024/01/22 01:07:42;;;;;;;11.32;6.03;;;8.30;99.90;;;;;;5080865;28;20189;-44
2024/01/22 01:10:08;;;;;;;12.90;6.20;;;8.30;99.90;;;;;;5080610;28;20190;-44
2024/01/22 01:12:33;;;;;;;10.30;6.03;;;8.30;99.90;;;;;;5080827;28;20271;-42
2024/01/22 01:14:59;;;;;;;10.93;6.35;;;8.30;99.90;;;;;;5081713;28;21148;-40
2024/01/22 01:17:25;;;;;;;12.80;5.57;;;8.30;99.90;;;;;;5081433;28;20184;-42
2024/01/22 01:19:51;;;;;;;14.52;6.25;;;8.40;99.90;;;;;;5080354;28;20205;-40
2024/01/22 01:22:17;;;;;;;8.40;5.50;;;8.30;99.90;;;;;;5082270;28;20193;-41
2024/01/22 01:24:43;;;;;;;10.90;5.50;;;8.40;99.90;;;;;;5082276;28;20275;-40
2024/01/22 01:27:09;;;;;;;12.25;6.05;;;8.40;99.90;;;;;;5081408;28;21556;-39
2024/01/22 01:29:38;;;;;;;9.60;5.95;;;8.40;99.90;;;;;;5081607;28;20217;-43
2024/01/22 01:32:05;;;;;;;12.32;6.10;;;8.40;99.90;;;;;;5081076;28;20185;-42
2024/01/22 01:34:30;;;;;;;9.88;5.55;;;8.50;99.90;;;;;;5081918;28;20182;-44
2024/01/22 01:36:56;;;;;;;12.10;5.88;;;8.50;99.90;;;;;;5081544;28;20240;-42
2024/01/22 01:39:22;;;;;;;11.02;6.03;;;8.50;99.90;;;;;;5081310;28;20224;-37
2024/01/22 01:41:49;;;;;;;11.45;5.55;;;8.50;99.90;;;;;;5080387;28;20189;-40
2024/01/22 01:44:15;;;;;;;10.93;5.93;;;8.60;99.90;;;;;;5079901;28;20296;-41
2024/01/22 01:46:41;;;;;;;10.80;5.72;;;8.60;99.90;;;;;;5080270;28;20188;-42
2024/01/22 01:49:08;;;;;;;13.27;5.43;;;8.60;99.90;;;;;;5081544;28;20216;-43
2024/01/22 01:51:35;;;;;;;11.50;6.05;;;8.60;99.90;;;;;;5079767;28;20186;-44
2024/01/22 01:54:02;;;;;;;12.15;5.43;;;8.70;99.90;;;;;;5080959;28;20218;-46
2024/01/22 01:56:28;;;;;;;11.40;5.20;;;8.70;99.90;;;;;;5081054;28;20189;-44
2024/01/22 01:58:54;;;;;;;10.70;5.28;;;8.80;99.90;;;;;;5079984;28;20282;-40
2024/01/22 02:01:21;;;;;;;10.05;5.35;;;8.80;99.90;;;;;;5080948;28;20251;-40
2024/01/22 02:03:47;;;;;;;10.63;5.22;;;8.90;99.90;;;;;;5063744;28;20186;-40
2024/01/22 02:06:13;;;;;;;10.30;4.90;;;8.90;99.90;;;;;;5079725;28;20217;-42
2024/01/22 02:08:38;;;;;;;13.63;5.45;;;9.00;99.90;;;;;;5081166;28;20527;-46
2024/01/22 02:11:05;;;;;;;12.15;5.72;;;9.00;99.90;;;;;;5080872;28;20228;-42
2024/01/22 02:13:31;;;;;;;16.10;5.82;;;9.00;99.90;;;;;;5079511;28;21156;-41
2024/01/22 02:15:57;;;;;;;8.82;5.38;;;9.00;99.90;;;;;;5080820;28;20188;-46
2024/01/22 02:18:23;;;;;;;9.10;5.32;;;9.00;99.90;;;;;;5080110;28;20295;-43
2024/01/22 02:20:49;;;;;;;9.10;6.03;;;9.00;99.90;;;;;;5081384;28;20190;-40
2024/01/22 02:23:14;;;;;;;9.80;5.80;;;9.00;99.90;;;;;;5081022;28;20185;-39
2024/01/22 02:25:40;;;;;;;11.98;5.57;;;9.00;99.90;;;;;;5080292;28;20288;-45
2024/01/22 02:28:06;;;;;;;10.13;5.57;;;9.00;99.90;;;;;;5080630;28;20244;-38
2024/01/22 02:30:32;;;;;;;13.32;5.60;;;9.00;99.90;;;;;;5080234;28;20553;-40
2024/01/22 02:32:58;;;;;;;9.07;4.95;;;9.00;99.90;;;;;;5079505;28;20182;-39
2024/01/22 02:35:24;;;;;;;10.60;5.50;;;9.00;99.90;;;;;;5081019;28;20857;-42
2024/01/22 02:37:50;;;;;;;10.57;4.80;;;9.00;99.90;;;;;;5080637;28;20186;-43
2024/01/22 02:40:16;;;;;;;8.82;5.22;;;9.00;99.90;;;;;;5080914;28;20193;-38
2024/01/22 02:42:42;;;;;;;10.50;5.00;;;9.10;99.90;;;;;;5078874;28;20190;-41
2024/01/22 02:45:09;;;;;;;8.70;5.28;;;9.10;99.90;;;;;;5080756;28;21309;-39
2024/01/22 02:47:35;;;;;;;11.88;5.07;;;9.10;99.90;;;;;;5081097;28;20194;-41
2024/01/22 02:50:01;;;;;;;7.15;4.80;;;9.10;99.90;;;;;;5079627;28;20312;-43
2024/01/22 02:52:28;;;;;;;11.32;4.90;;;9.20;99.90;;;;;;5079239;28;20605;-42
2024/01/22 02:54:53;;;;;;;8.40;4.70;;;9.20;99.90;;;;;;5079228;28;20218;-42
2024/01/22 02:57:19;;;;;;;9.75;5.45;;;9.20;99.90;;;;;;5080437;28;20810;-41
2024/01/22 02:59:45;;;;;;;8.73;4.75;;;9.20;99.90;;;;;;5080653;28;20194;-40
2024/01/22 03:02:11;;;;;;;8.20;4.63;;;9.30;99.90;;;;;;5079686;28;20190;-41
2024/01/22 03:04:37;;;;;;;7.32;4.80;;;9.30;99.90;;;;;;5080461;28;20275;-39
2024/01/22 03:07:03;;;;;;;9.18;4.78;;;9.30;99.90;;;;;;5078822;28;20182;-40
2024/01/22 03:09:29;;;;;;;9.07;5.15;;;9.30;99.90;;;;;;5080203;28;20978;-41
2024/01/22 03:11:54;;;;;;;11.07;5.03;;;9.30;99.90;;;;;;5080765;28;20186;-42
2024/01/22 03:14:20;;;;;;;6.20;4.45;;;9.30;99.90;;;;;;5080881;28;20182;-43
2024/01/22 03:16:46;;;;;;;7.95;4.43;;;9.30;99.90;;;;;;5079033;28;20272;-45
2024/01/22 03:19:12;;;;;;;7.88;4.43;;;9.30;99.90;;;;;;5080458;28;20636;-42
2024/01/22 03:21:38;;;;;;;11.57;5.07;;;9.30;99.90;;;;;;5080942;28;20212;-44
2024/01/22 03:24:05;;;;;;;11.05;4.70;;;9.30;99.90;;;;;;5065862;28;20205;-43
2024/01/22 03:26:30;;;;;;;7.68;4.70;;;9.30;99.90;;;;;;5082921;28;20197;-39
2024/01/22 03:28:56;;;;;;;8.93;5.10;;;9.30;99.90;;;;;;5083262;28;20732;-40
2024/01/22 03:31:24;;;;;;;9.93;5.28;;;9.30;99.90;;;;;;5083851;28;21539;-44
2024/01/22 03:33:51;;;;;;;10.73;5.22;;;9.30;99.90;;;;;;5070050;28;20277;-41
2024/01/22 03:36:17;;;;;;;10.82;5.10;;;9.30;99.90;;;;;;5083358;28;20194;-39
2024/01/22 03:38:44;;;;;;;11.60;5.30;;;9.30;99.90;;;;;;5083935;28;20201;-43
2024/01/22 03:41:10;;;;;;;8.68;5.00;;;9.20;99.90;;;;;;5083945;28;20219;-40
2024/01/22 03:43:36;;;;;;;8.63;4.70;;;9.30;99.90;;;;;;5082965;28;20278;-41
2024/01/22 03:46:02;;;;;;;9.55;5.63;;;9.20;99.90;;;;;;5082532;28;20730;-42
2024/01/22 03:48:28;;;;;;;10.68;5.63;;;9.20;99.90;;;;;;5082232;28;20190;-42
2024/01/22 03:50:54;;;;;;;10.15;5.05;;;9.20;99.90;;;;;;5083166;28;20193;-40
2024/01/22 03:53:20;;;;;;;6.78;5.05;;;9.20;99.90;;;;;;5082490;28;20186;-40
2024/01/22 03:55:46;;;;;;;8.20;5.15;;;9.20;99.90;;;;;;5083408;28;20190;-42
2024/01/22 03:58:12;;;;;;;8.25;5.05;;;9.20;99.90;;;;;;5082330;28;20287;-40
2024/01/22 04:00:38;;;;;;;6.80;4.28;;;9.20;99.90;;;;;;5083625;28;20213;-40
2024/01/22 04:03:05;;;;;;;6.95;4.50;;;9.20;99.90;;;;;;5083407;28;20207;-39
2024/01/22 04:05:31;;;;;;;9.45;5.03;;;9.20;99.90;;;;;;5083199;28;20228;-42
2024/01/22 04:07:57;;;;;;;5.25;3.90;;;9.20;99.90;;;;;;5082318;28;20181;-39
2024/01/22 04:10:24;;;;;;;13.52;4.57;;;9.20;99.90;;;;;;5083181;28;20194;-42
2024/01/22 04:12:50;;;;;;;6.80;4.35;;;9.20;99.90;;;;;;5083269;28;20189;-40
2024/01/22 04:15:16;;;;;;;5.55;4.22;;;9.20;99.90;;;;;;5083336;28;20567;-39
2024/01/22 04:17:42;;;;;;;8.60;4.10;;;9.30;99.90;;;;;;5082111;28;20201;-43
2024/01/22 04:20:09;;;;;;;6.47;3.90;;;9.30;99.90;;;;;;5082776;28;20217;-45
2024/01/22 04:22:34;;;;;;;7.13;4.57;;;9.30;99.90;;;;;;5082989;28;20194;-39
2024/01/22 04:25:00;;;;;;;6.53;4.40;;;9.30;99.90;;;;;;5083224;28;20205;-41
2024/01/22 04:27:26;;;;;;;5.88;4.03;;;9.30;99.90;;;;;;5082494;28;20716;-39
2024/01/22 04:29:52;;;;;;;4.70;3.80;;;9.40;99.90;;;;;;5082558;28;20254;-42
2024/01/22 04:32:18;;;;;;;5.97;3.92;;;9.40;99.90;;;;;;5064655;28;20673;-42
2024/01/22 04:34:44;;;;;;;4.78;3.85;;;9.40;99.90;;;;;;5080772;28;20216;-38
2024/01/22 04:37:10;;;;;;;6.40;4.18;;;9.40;99.90;;;;;;5082208;28;20217;-38
2024/01/22 04:39:38;;;;;;;5.40;4.15;;;9.50;99.90;;;;;;5080784;28;20277;-40
2024/01/22 04:42:04;;;;;;;4.47;3.45;;;9.50;99.90;;;;;;5082428;28;20205;-42
2024/01/22 04:44:30;;;;;;;7.32;4.05;;;9.50;99.90;;;;;;5082448;28;20217;-43
2024/01/22 04:46:57;;;;;;;5.95;3.60;;;9.50;99.90;;;;;;5082442;28;20251;-39
2024/01/22 04:49:23;;;;;;;4.53;3.38;;;9.60;99.90;;;;;;5081401;28;20178;-41
2024/01/22 04:51:49;;;;;;;4.93;3.58;;;9.60;99.90;;;;;;5082952;28;20204;-43
2024/01/22 04:54:15;;;;;;;4.55;3.63;;;9.70;99.90;;;;;;5064167;28;20205;-39
2024/01/22 04:56:42;;;;;;;6.70;3.50;;;9.60;99.90;;;;;;5080218;28;20186;-40
2024/01/22 04:59:08;;;;;;;7.72;3.97;;;9.70;99.90;;;;;;5080248;28;20186;-39
2024/01/22 05:01:34;;;;;;;6.30;3.58;;;9.70;99.90;;;;;;5082288;28;20197;-40
2024/01/22 05:04:00;;;;;;;8.43;4.18;;;9.80;99.90;;;;;;5082122;28;20178;-38
2024/01/22 05:06:26;;;;;;;5.65;3.85;;;9.80;99.90;;;;;;5082114;28;20993;-45
2024/01/22 05:08:52;;;;;;;7.20;3.92;;;9.80;99.90;;;;;;5082386;28;20209;-39
2024/01/22 05:11:18;;;;;;;3.92;3.50;;;9.90;99.90;;;;;;5080679;28;20182;-41
2024/01/22 05:13:52;;;;;;;5.57;3.78;;;9.90;99.90;;;;;;5082273;28;20889;-39
2024/01/22 05:16:19;;;;;;;5.05;3.70;;;9.90;99.90;;;;;;5082104;28;20224;-39
2024/01/22 05:18:46;;;;;;;7.25;3.92;;;10.00;99.90;;;;;;5080312;28;20276;-40
2024/01/22 05:21:12;;;;;;;5.30;3.60;;;10.00;99.90;;;;;;5082209;28;20629;-39
2024/01/22 05:23:39;;;;;;;5.47;3.30;;;10.00;99.90;;;;;;5080837;28;20186;-40
2024/01/22 05:26:08;;;;;;;5.32;3.97;;;10.10;99.90;;;;;;5081531;28;20677;-39
2024/01/22 05:28:35;;;;;;;5.03;3.70;;;10.10;99.90;;;;;;5081265;28;20224;-39
2024/01/22 05:31:01;;;;;;;4.18;3.63;;;10.10;99.90;;;;;;5082050;28;20177;-41
2024/01/22 05:33:28;;;;;;;5.07;3.65;;;10.20;99.90;;;;;;5081428;28;20174;-45
2024/01/22 05:35:55;;;;;;;4.50;3.20;;;10.20;99.90;;;;;;5080621;28;20284;-38
2024/01/22 05:38:22;;;;;;;3.42;2.88;;;10.20;99.90;;;;;;5081688;28;20186;-40
2024/01/22 05:40:48;;;;;;;4.22;3.15;;;10.30;99.90;;;;;;5081934;28;20200;-40
2024/01/22 05:43:14;;;;;;;5.97;3.10;;;10.30;99.90;;;;;;5079845;28;20309;-42
2024/01/22 05:45:40;;;;;;;4.53;2.50;;;10.40;99.90;;;;;;5081152;28;20628;-38
2024/01/22 05:48:07;;;;;;;3.72;2.70;;;10.40;99.90;;;;;;5081219;28;20679;-40
2024/01/22 05:50:33;;;;;;;6.05;2.55;;;10.50;99.90;;;;;;5081446;28;20190;-38
2024/01/22 05:52:59;;;;;;;4.38;2.45;;;10.50;99.90;;;;;;5081001;28;20193;-38
2024/01/22 05:55:28;;;;;;;5.25;2.50;;;10.60;99.90;;;;;;5081718;28;20186;-39
2024/01/22 05:57:55;;;;;;;5.80;2.25;;;10.70;99.90;;;;;;5081442;28;20197;-41
2024/01/22 06:00:21;;;;;;;4.68;2.17;;;10.80;99.90;;;;;;5080986;28;20205;-39
2024/01/22 06:02:47;;;;;;;5.65;2.20;;;10.80;99.90;;;;;;5081231;28;20642;-41
2024/01/22 06:05:13;;;;;;;6.43;2.47;;;10.90;99.90;;;;;;5079377;28;20578;-40
2024/01/22 06:07:39;;;;;;;5.22;2.28;;;10.90;99.90;;;;;;5080883;28;20189;-38
2024/01/22 06:10:06;;;;;;;5.88;2.13;;;10.90;99.90;;;;;;5079419;28;20747;-41
2024/01/22 06:12:34;;;;;;;4.60;2.28;;;11.00;99.90;;;;;;5079586;28;20190;-39
2024/01/22 06:15:01;;;;;;;7.38;2.80;;;11.00;99.90;;;;;;5062908;28;20197;-41
2024/01/22 06:17:32;;;;;;;8.60;2.50;;;11.00;99.90;;;;;;5063177;28;20182;-45
2024/01/22 06:20:00;;;;;;;6.30;2.50;;;11.00;99.90;;;;;;5047646;28;20748;-38
2024/01/22 06:22:26;;;;;;;11.85;2.90;;;10.90;99.90;;;;;;5062507;28;20204;-41
2024/01/22 06:24:52;;;;;;;8.55;2.47;;;10.90;99.90;;;;;;5080542;28;20213;-42
2024/01/22 06:27:19;;;;;;;7.55;2.70;;;10.90;99.90;;;;;;5079152;28;20194;-41
2024/01/22 06:29:44;;;;;;;10.68;2.72;;;10.90;99.90;;;;;;5080123;28;20218;-39
2024/01/22 06:32:10;;;;;;;9.43;2.42;;;10.90;99.90;;;;;;5080000;28;20174;-38
2024/01/22 06:34:36;;;;;;;7.10;2.20;;;10.90;99.90;;;;;;5080704;28;20232;-39
2024/01/22 06:37:04;;;;;;;7.63;2.35;;;10.90;99.90;;;;;;5081059;28;20250;-38
2024/01/22 06:39:30;;;;;;;7.60;2.20;;;10.90;99.90;;;;;;5079907;28;20284;-46
2024/01/22 06:41:56;;;;;;;9.55;2.45;;;10.90;99.90;;;;;;5061724;28;21310;-42
2024/01/22 06:44:22;;;;;;;6.53;2.22;;;10.90;99.90;;;;;;5061280;28;20644;-39
2024/01/22 06:46:48;;;;;;;11.95;2.70;;;10.90;99.90;;;;;;5080377;28;20216;-39
2024/01/22 06:49:14;;;;;;;5.75;1.88;;;10.90;99.90;;;;;;5062588;28;20205;-44
2024/01/22 06:51:40;;;;;;;10.75;3.00;;;10.90;99.90;;;;;;5062636;28;20182;-39
2024/01/22 06:54:06;;;;;;;12.23;3.05;;;10.90;99.90;;;;;;5044744;28;20197;-39
2024/01/22 06:56:32;;;;;;;10.98;3.40;;;10.80;99.90;;;;;;5062977;28;20256;-40
2024/01/22 06:58:59;;;;;;;12.30;2.90;;;10.90;99.90;;;;;;5049872;28;20205;-38
2024/01/22 07:01:27;;;;;;;12.15;3.38;;;10.90;99.90;;;;;;5081696;28;20205;-41
2024/01/22 07:03:54;;;;;;;10.23;2.42;;;10.80;99.90;;;;;;5083904;28;20747;-41
2024/01/22 07:06:20;;;;;;;16.88;3.30;;;10.90;99.90;;;;;;5082014;28;21067;-41
2024/01/22 07:08:46;;;;;;;14.75;4.00;;;10.90;99.90;;;;;;5082152;28;20281;-40
2024/01/22 07:11:12;;;;;;;14.52;3.33;;;10.90;99.90;;;;;;5082843;28;20277;-39
2024/01/22 07:13:38;;;;;;;19.98;4.22;;;10.90;99.90;;;;;;5082672;28;20182;-41
2024/01/22 07:16:06;;;;;;;20.95;3.67;;;10.90;99.90;;;;;;5084064;28;20567;-39
2024/01/22 07:18:33;;;;;;;18.70;3.80;;;10.90;99.90;;;;;;5082256;28;20182;-41
2024/01/22 07:21:00;;;;;;;23.90;4.13;;;10.90;99.90;;;;;;5082682;28;20218;-41
2024/01/22 07:23:26;;;;;;;20.98;4.28;;;10.90;99.90;;;;;;5080449;28;20188;-40
2024/01/22 07:25:54;;;;;;;27.35;4.78;;;10.90;99.90;;;;;;5065551;28;21217;-42
2024/01/22 07:28:20;;;;;;;36.95;4.78;;;10.90;99.90;;;;;;5083616;28;20224;-41
2024/01/22 07:30:46;;;;;;;31.08;5.60;;;10.90;99.90;;;;;;5081816;28;20182;-38
2024/01/22 07:33:12;;;;;;;28.95;5.35;;;10.90;99.90;;;;;;5048759;28;20197;-40
2024/01/22 07:35:38;;;;;;;42.90;5.97;;;10.90;99.90;;;;;;5030493;28;20773;-38
2024/01/22 07:38:07;;;;;;;38.65;6.00;;;10.90;99.90;;;;;;5065361;28;20284;-41
2024/01/22 07:40:33;;;;;;;37.92;5.75;;;10.90;99.90;;;;;;5081904;28;20190;-41
2024/01/22 07:42:59;;;;;;;43.80;5.85;;;10.90;99.90;;;;;;5081237;28;20277;-44
2024/01/22 07:45:25;;;;;;;29.35;5.28;;;10.90;99.90;;;;;;5083079;28;20685;-42
2024/01/22 07:47:51;;;;;;;39.25;6.13;;;11.00;99.90;;;;;;5064591;28;20197;-39
2024/01/22 07:50:17;;;;;;;27.63;5.70;;;11.00;99.90;;;;;;5082676;28;20185;-39
2024/01/22 07:52:44;;;;;;;43.78;5.82;;;11.00;99.90;;;;;;5081931;28;20196;-39
2024/01/22 07:55:13;;;;;;;43.95;6.63;;;11.00;99.90;;;;;;5082359;28;20182;-39
2024/01/22 07:57:39;;;;;;;48.53;6.85;;;11.10;99.90;;;;;;5082686;28;20193;-40
2024/01/22 08:00:11;;;;;;;100.05;51.25;;;11.10;99.90;;;;;;5083291;28;20713;-39
2024/01/22 08:02:40;;;;;;;44.22;6.15;;;11.00;99.90;;;;;;5083099;28;20206;-43
2024/01/22 08:05:06;;;;;;;28.20;5.22;;;10.90;99.90;;;;;;5080378;28;20282;-44
2024/01/22 08:07:33;;;;;;;19.55;4.03;;;10.70;99.90;;;;;;5083153;28;20181;-40
2024/01/22 08:09:59;;;;;;;30.73;4.30;;;10.50;99.90;;;;;;5081995;28;20193;-41
2024/01/22 08:12:25;;;;;;;28.60;4.25;;;10.50;99.90;;;;;;5082854;28;20234;-39
2024/01/22 08:14:51;;;;;;;19.65;4.28;;;10.40;99.90;;;;;;5082804;28;20190;-42
2024/01/22 08:17:17;;;;;;;16.00;3.78;;;10.30;99.90;;;;;;5082146;28;20700;-45
2024/01/22 08:19:43;;;;;;;16.55;3.47;;;10.20;99.90;;;;;;5082128;28;20568;-45
2024/01/22 08:22:09;;;;;;;16.77;3.10;;;10.20;99.90;;;;;;5081440;28;20189;-40
2024/01/22 08:24:34;;;;;;;16.90;3.40;;;10.10;99.90;;;;;;5083000;28;20206;-48
2024/01/22 08:27:02;;;;;;;23.10;3.33;;;10.10;99.90;;;;;;5082843;28;20725;-40
2024/01/22 08:29:28;;;;;;;28.38;4.25;;;10.10;99.90;;;;;;5082472;28;20214;-41
2024/01/22 08:31:54;;;;;;;21.17;4.45;;;10.00;99.90;;;;;;5082596;28;20205;-38
2024/01/22 08:34:20;;;;;;;33.10;5.40;;;10.00;99.90;;;;;;5081975;28;20547;-39
2024/01/22 08:36:46;;;;;;;44.38;5.93;;;10.00;99.90;;;;;;5082385;28;20189;-40
2024/01/22 08:39:12;;;;;;;32.35;5.50;;;10.00;99.90;;;;;;5082129;28;20182;-39
2024/01/22 08:41:38;;;;;;;35.65;5.88;;;10.00;99.90;;;;;;5082652;28;20174;-37
2024/01/22 08:44:05;;;;;;;41.13;6.00;;;9.90;99.90;;;;;;5081383;28;20247;-40
2024/01/22 08:46:32;;;;;;;53.10;6.53;;;9.90;99.90;;;;;;5080661;28;20770;-38
2024/01/22 08:48:58;;;;;;;42.25;6.43;;;9.90;99.90;;;;;;5080426;28;20186;-40
2024/01/22 08:51:25;;;;;;;47.15;6.68;;;9.80;99.90;;;;;;5081067;28;20692;-41
2024/01/22 08:53:50;;;;;;;49.03;6.85;;;9.80;99.90;;;;;;5081489;28;20186;-37
2024/01/22 08:56:16;;;;;;;51.22;7.18;;;9.80;99.90;;;;;;5082208;28;20247;-38
2024/01/22 08:58:42;;;;;;;55.25;10.98;;;9.70;99.90;;;;;;5082327;28;20229;-42
2024/01/22 09:01:08;;;;;;;52.95;8.05;;;9.70;99.90;;;;;;5063768;28;20205;-39
2024/01/22 09:03:34;;;;;;;53.58;7.43;;;9.70;99.90;;;;;;5082360;28;20194;-41
2024/01/22 09:06:00;;;;;;;40.42;6.80;;;9.70;99.90;;;;;;5081470;28;20213;-37
2024/01/22 09:08:26;;;;;;;63.72;7.47;;;9.70;99.90;;;;;;5082436;28;20190;-38
2024/01/22 09:10:53;;;;;;;65.00;8.50;;;9.70;99.90;;;;;;5082580;28;20190;-41
2024/01/22 09:13:19;;;;;;;78.13;9.35;;;9.70;99.90;;;;;;5082184;28;20480;-40
2024/01/22 09:15:45;;;;;;;67.22;8.93;;;9.70;99.90;;;;;;5082111;28;20201;-40
2024/01/22 09:18:11;;;;;;;74.55;10.30;;;9.70;99.90;;;;;;5082069;28;20185;-38
2024/01/22 09:20:37;;;;;;;80.13;10.40;;;9.70;99.90;;;;;;5081149;28;20221;-38
2024/01/22 09:23:03;;;;;;;77.70;10.52;;;9.70;99.90;;;;;;5081142;28;20178;-39
2024/01/22 09:25:29;;;;;;;84.22;10.40;;;9.70;99.90;;;;;;5082339;28;20209;-40
2024/01/22 09:27:55;;;;;;;78.65;9.77;;;9.70;99.90;;;;;;5080321;28;20221;-39
2024/01/22 09:30:21;;;;;;;80.25;10.13;;;9.70;99.90;;;;;;5082043;28;20186;-42
2024/01/22 09:32:47;;;;;;;72.18;10.35;;;9.70;99.90;;;;;;5081472;28;20178;-38
2024/01/22 09:35:14;;;;;;;95.07;10.60;;;9.70;99.90;;;;;;5081983;28;20263;-40
2024/01/22 09:37:40;;;;;;;91.40;10.73;;;9.70;99.90;;;;;;5082210;28;20197;-40
2024/01/22 09:40:11;;;;;;;65.95;9.02;;;9.70;99.90;;;;;;5082191;28;20197;-42
2024/01/22 09:42:39;;;;;;;84.40;9.80;;;9.70;99.90;;;;;;5073323;28;20297;-39
2024/01/22 09:45:08;;;;;;;80.05;11.38;;;9.70;99.90;;;;;;5079617;28;20216;-40
2024/01/22 09:47:37;;;;;;;63.97;10.25;;;9.70;99.90;;;;;;5080984;28;20189;-37
2024/01/22 09:50:04;;;;;;;69.03;8.73;;;9.60;99.90;;;;;;5081907;28;20573;-39
2024/01/22 09:52:32;;;;;;;79.50;9.43;;;9.60;99.90;;;;;;5081518;28;20197;-41
2024/01/22 09:54:59;;;;;;;76.97;9.57;;;9.60;99.90;;;;;;5081968;28;20209;-39
2024/01/22 09:57:27;;;;;;;67.97;9.13;;;9.50;99.90;;;;;;5081574;28;20193;-43
2024/01/22 09:59:54;;;;;;;60.63;7.93;;;9.50;99.90;;;;;;5080078;28;20638;-39
2024/01/22 10:02:21;;;;;;;61.60;8.15;;;9.40;99.90;;;;;;5081337;28;21015;-39
2024/01/22 10:04:47;;;;;;;63.45;8.80;;;9.40;99.90;;;;;;5080750;28;20210;-38
2024/01/22 10:07:16;;;;;;;58.95;8.40;;;9.40;99.90;;;;;;5080900;28;20182;-38
2024/01/22 10:09:43;;;;;;;69.13;9.60;;;9.40;99.90;;;;;;5080249;28;20193;-42
2024/01/22 10:12:09;;;;;;;69.43;9.80;;;9.50;99.90;;;;;;5080935;28;20178;-43
2024/01/22 10:14:37;;;;;;;75.07;9.13;;;9.50;99.90;;;;;;5081732;28;20254;-39
2024/01/22 10:17:20;;;;;;;51.22;7.70;;;9.50;99.90;;;;;;5081533;28;20186;-42
2024/01/22 10:19:49;;;;;;;70.35;8.38;;;9.50;99.90;;;;;;5081469;28;20285;-41
2024/01/22 10:22:26;;;;;;;49.63;8.02;;;9.50;99.90;;;;;;5081942;28;20660;-38
2024/01/22 10:25:02;;;;;;;59.65;8.02;;;9.50;99.90;;;;;;5080592;28;20326;-40
2024/01/22 10:27:28;;;;;;;50.22;7.63;;;9.50;99.90;;;;;;5081611;28;20619;-40
2024/01/22 10:30:09;;;;;;;45.80;7.28;;;9.50;99.90;;;;;;5080943;28;20308;-41
2024/01/22 10:32:35;;;;;;;63.38;8.02;;;9.50;99.90;;;;;;5083379;28;20182;-40
2024/01/22 10:35:01;;;;;;;49.22;7.43;;;9.50;99.90;;;;;;5085621;28;20197;-40
2024/01/22 10:37:27;;;;;;;57.92;7.68;;;9.50;99.90;;;;;;5085546;28;20193;-45
2024/01/22 10:40:01;;;;;;;48.33;7.28;;;9.40;99.90;;;;;;5085239;28;20697;-40
2024/01/22 10:42:27;;;;;;;30.50;5.35;;;9.40;99.90;;;;;;5085768;28;20653;-39
2024/01/22 10:44:55;;;;;;;43.67;6.43;;;9.40;99.90;;;;;;5083963;28;20213;-41
2024/01/22 10:47:21;;;;;;;36.50;6.18;;;9.40;99.90;;;;;;5085307;28;20185;-38
2024/01/22 10:49:47;;;;;;;42.92;6.93;;;9.40;99.90;;;;;;5084536;28;20170;-40
2024/01/22 10:52:13;;;;;;;42.70;5.47;;;9.40;99.90;;;;;;5084941;28;20208;-44
2024/01/22 10:54:40;;;;;;;32.92;5.80;;;9.40;99.90;;;;;;5050410;28;20196;-41
2024/01/22 10:57:09;;;;;;;30.80;4.95;;;9.30;99.90;;;;;;5084669;28;20189;-40
2024/01/22 10:59:38;;;;;;;32.33;5.75;;;9.30;99.90;;;;;;5084350;28;20186;-39
2024/01/22 11:02:16;;;;;;;40.65;5.75;;;9.30;99.90;;;;;;5083013;28;20294;-38
2024/01/22 11:04:44;;;;;;;35.03;6.95;;;9.30;99.90;;;;;;5064786;28;20214;-40
2024/01/22 11:07:11;;;;;;;34.15;5.85;;;9.40;99.90;;;;;;5084597;28;20572;-42
2024/01/22 11:09:38;;;;;;;32.72;5.18;;;9.40;99.90;;;;;;5084238;28;20951;-41
2024/01/22 11:12:13;;;;;;;31.83;5.28;;;9.50;99.90;;;;;;5066268;28;20190;-40
2024/01/22 11:14:41;;;;;;;37.70;6.07;;;9.60;99.90;;;;;;5083320;28;20291;-42
2024/01/22 11:17:09;;;;;;;36.38;5.32;;;9.70;99.90;;;;;;5083927;28;20541;-42
2024/01/22 11:19:36;;;;;;;37.60;6.28;;;9.80;99.90;;;;;;5083932;28;20213;-42
2024/01/22 11:22:23;;;;;;;33.10;5.60;;;9.90;99.90;;;;;;5084376;28;20190;-40
2024/01/22 11:25:01;;;;;;;35.28;5.57;;;10.00;99.90;;;;;;5084190;28;20201;-41
2024/01/22 11:27:44;;;;;;;33.63;6.03;;;10.00;99.90;;;;;;5083417;28;20189;-41
2024/01/22 11:30:22;;;;;;;32.58;6.00;;;10.10;99.90;;;;;;5083693;28;20317;-44
2024/01/22 11:32:48;;;;;;;33.05;6.07;;;10.10;99.90;;;;;;5081780;28;20604;-41
2024/01/22 11:35:33;;;;;;;24.55;4.88;;;10.00;99.90;;;;;;5083537;28;20329;-43
2024/01/22 11:37:59;;;;;;;32.35;5.88;;;10.00;99.90;;;;;;5083543;28;20656;-44
2024/01/22 11:40:55;;;;;;;27.52;5.30;;;10.00;99.90;;;;;;5083965;28;20186;-39
2024/01/22 11:43:23;;;;;;;35.20;5.53;;;10.10;99.90;;;;;;5081996;28;20186;-41
2024/01/22 11:45:53;;;;;;;29.17;5.57;;;10.00;99.90;;;;;;5083699;28;20647;-42
2024/01/22 11:48:21;;;;;;;23.25;4.28;;;10.00;99.90;;;;;;5081849;28;20193;-43
2024/01/22 11:51:07;;;;;;;29.67;4.88;;;10.10;99.90;;;;;;5083316;28;20953;-40
2024/01/22 11:53:51;;;;;;;25.42;4.35;;;10.00;99.90;;;;;;5081579;28;20253;-43
2024/01/22 11:56:18;;;;;;;30.27;5.15;;;10.10;99.90;;;;;;5083267;28;20185;-41
2024/01/22 11:58:44;;;;;;;26.23;5.30;;;10.10;99.90;;;;;;5081222;28;20197;-43
2024/01/22 12:01:11;;;;;;;37.45;6.22;;;10.20;99.90;;;;;;5082619;28;20190;-40
2024/01/22 12:03:37;;;;;;;34.50;4.68;;;10.30;99.90;;;;;;5083021;28;20642;-38
2024/01/22 12:06:08;;;;;;;28.17;4.28;;;10.30;99.90;;;;;;5083326;28;20209;-42
2024/01/22 12:08:35;;;;;;;22.58;3.88;;;10.30;99.90;;;;;;5081463;28;20268;-39
2024/01/22 12:11:08;;;;;;;22.83;4.78;;;10.40;99.90;;;;;;5082869;28;20235;-41
2024/01/22 12:13:37;;;;;;;20.95;4.15;;;10.40;99.90;;;;;;5082324;28;20189;-39
2024/01/22 12:16:03;;;;;;;29.17;4.88;;;10.40;99.90;;;;;;5083024;28;20272;-41
2024/01/22 12:18:29;;;;;;;36.13;4.97;;;10.50;99.90;;;;;;5082524;28;20252;-41
2024/01/22 12:20:55;;;;;;;18.13;3.90;;;10.50;99.90;;;;;;5081310;28;20290;-41
2024/01/22 12:23:31;;;;;;;30.30;4.85;;;10.50;99.90;;;;;;5082870;28;20351;-42
2024/01/22 12:25:57;;;;;;;33.05;5.70;;;10.60;99.90;;;;;;5082530;28;20351;-40
2024/01/22 12:28:24;;;;;;;32.40;4.70;;;10.60;99.90;;;;;;5080650;28;20178;-43
2024/01/22 12:31:01;;;;;;;21.15;4.03;;;10.60;99.90;;;;;;5081261;28;20186;-41
2024/01/22 12:33:30;;;;;;;21.13;3.83;;;10.60;99.90;;;;;;5082516;28;20246;-39
2024/01/22 12:36:14;;;;;;;26.58;5.85;;;10.60;99.90;;;;;;5082470;28;20613;-41
2024/01/22 12:38:50;;;;;;;21.27;4.68;;;10.50;99.90;;;;;;5082561;28;20193;-41
2024/01/22 12:41:18;;;;;;;17.13;3.60;;;10.60;99.90;;;;;;5082014;28;20551;-43
2024/01/22 12:43:45;;;;;;;23.85;3.78;;;10.70;99.90;;;;;;5080197;28;20271;-41
2024/01/22 12:46:15;;;;;;;26.77;4.47;;;10.60;99.90;;;;;;5081739;28;20879;-40